Weather History for Mammoth, CA

Change the Weather History Date:

Friday, December 13, 2013

  Actual Average Record
Temperature  
Mean Temperature 30 °F -  
Max Temperature 46 °F 40 °F 60 °F (2010)
Min Temperature 15 °F 24 °F 6 °F (2011)
Degree Days  
Heating Degree Days 34    
Moisture  
Dew Point 8 °F    
Average Humidity 48    
Maximum Humidity 74    
Minimum Humidity 13    
Precipitation  
Precipitation 0.00 in - - ()
Sea Level Pressure  
Sea Level Pressure 30.29 in    
Wind  
Wind Speed 5 mph (NW)    
Max Wind Speed 10 mph    
Max Gust Speed 17 mph    
Visibility 10 miles    
Events      
Averages and records for this station are not official NWS values.
T = Trace of Precipitation, MM = Missing Value Source: NWS Daily Summary

Daily Weather History Graph

Daily Weather History Graph

Search for Another Location

Airport:

Trip Planner

Search our weather history database for the weather conditions in past years. The results will help you decide how hot, cold, wet, or windy it might be!

Date:

Astronomy

Dec. 13, 2013 Rise Set
Actual Time 7:01 AM PST 4:37 PM PST
Civil Twilight 6:32 AM PST 5:06 PM PST
Nautical Twilight 5:59 AM PST 5:39 PM PST
Astronomical Twilight 5:27 AM PST 6:11 PM PST
Moon 2:21 PM PST (12/13) 3:32 AM PST (12/13)
Length of Visible Light 10h 34m
Length of Day
9h 35m
Waxing Gibbous, 88% of the Moon is Illuminated
Dec 13
Waxing Gibbous
Dec 17
Full
Dec 25
Last Quarter
Jan 1
New
Jan 7
First Quarter

Hourly Weather History & Observations

Time (PST) Temp. Windchill Dew Point Humidity Pressure Visibility Wind Dir Wind Speed Gust Speed Precip Events Conditions
12:15 AM 15.8 °F - 8.6 °F 73% 30.20 in 10.0 mi North - - N/A   Clear
12:35 AM 17.6 °F 9.3 °F 10.4 °F 73% 30.18 in 10.0 mi South 5.8 mph - N/A   Clear
12:55 AM 15.8 °F 8.6 °F 8.6 °F 73% 30.18 in 10.0 mi WNW 4.6 mph - N/A   Clear
1:15 AM 17.6 °F - 10.4 °F 73% 30.18 in 10.0 mi Calm Calm - N/A   Clear
1:35 AM 17.6 °F - 10.4 °F 73% 30.19 in 10.0 mi Calm Calm - N/A   Clear
1:55 AM 15.8 °F 7.2 °F 8.6 °F 73% 30.19 in 10.0 mi North 5.8 mph - N/A   Clear
2:15 AM 17.6 °F 9.3 °F 10.4 °F 73% 30.18 in 10.0 mi North 5.8 mph - N/A   Clear
2:35 AM 21.2 °F - 12.2 °F 68% 30.18 in 10.0 mi North - - N/A   Clear
2:55 AM 23.0 °F 17.0 °F 12.2 °F 63% 30.19 in 10.0 mi NNE 4.6 mph - N/A   Clear
3:15 AM 21.2 °F - 10.4 °F 63% 30.19 in 10.0 mi North - - N/A   Clear
3:35 AM 21.2 °F - 8.6 °F 58% 30.20 in 10.0 mi North - - N/A   Clear
3:55 AM 21.2 °F 16.4 °F 8.6 °F 58% 30.19 in 10.0 mi SW 3.5 mph - N/A   Scattered Clouds
4:15 AM 24.8 °F 16.9 °F 3.2 °F 40% 30.18 in 10.0 mi WNW 6.9 mph - N/A   Scattered Clouds
4:35 AM 24.8 °F 20.5 °F 1.4 °F 36% 30.18 in 10.0 mi North 3.5 mph - N/A   Clear
4:55 AM 23.0 °F - 5.0 °F 46% 30.18 in 10.0 mi Calm Calm - N/A   Clear
5:15 AM 21.2 °F 12.6 °F 5.0 °F 50% 30.18 in 10.0 mi SE 6.9 mph - N/A   Clear
5:35 AM 21.2 °F - 6.8 °F 54% 30.19 in 10.0 mi North - - N/A   Clear
5:55 AM 17.6 °F - 3.2 °F 53% 30.20 in 10.0 mi North - - N/A   Clear
6:15 AM 19.4 °F - 1.4 °F 46% 30.21 in 10.0 mi North - - N/A   Clear
6:35 AM 17.6 °F - 1.4 °F 49% 30.21 in 10.0 mi North - - N/A   Clear
6:55 AM 19.4 °F 12.8 °F 3.2 °F 49% 30.23 in 10.0 mi South 4.6 mph - N/A   Clear
7:15 AM 17.6 °F - 3.2 °F 53% 30.23 in 10.0 mi North - - N/A   Clear
7:35 AM 21.2 °F 14.9 °F 1.4 °F 42% 30.23 in 10.0 mi North 4.6 mph - N/A   Clear
7:55 AM 23.0 °F 18.4 °F 3.2 °F 43% 30.25 in 10.0 mi NNW 3.5 mph - N/A   Clear
8:15 AM 28.4 °F - 5.0 °F 37% 30.26 in 10.0 mi Calm Calm - N/A   Clear
8:35 AM 33.8 °F - 3.2 °F 28% 30.27 in 10.0 mi Calm Calm - N/A   Clear
8:55 AM 37.4 °F 32.8 °F 3.2 °F 24% 30.28 in 10.0 mi West 5.8 mph - N/A   Clear
9:15 AM 39.2 °F 33.6 °F 5.0 °F 24% 30.28 in 10.0 mi West 8.1 mph - N/A   Clear
9:35 AM 41.0 °F 36.4 °F 3.2 °F 21% 30.29 in 10.0 mi West 6.9 mph - N/A   Clear
9:55 AM 42.8 °F 38.0 °F 3.2 °F 19% 30.30 in 10.0 mi NNW 8.1 mph - N/A   Clear
10:15 AM 42.8 °F 38.0 °F 1.4 °F 18% 30.30 in 10.0 mi NW 8.1 mph - N/A   Clear
10:35 AM 42.8 °F 38.0 °F 1.4 °F 18% 30.30 in 10.0 mi NNW 8.1 mph - N/A   Clear
10:55 AM 44.6 °F 40.7 °F 1.4 °F 17% 30.30 in 10.0 mi WNW 6.9 mph - N/A   Clear
11:15 AM 44.6 °F 39.7 °F 1.4 °F 17% 30.29 in 10.0 mi West 9.2 mph - N/A   Clear
11:35 AM 44.6 °F 39.7 °F -2.2 °F 14% 30.29 in 10.0 mi North 9.2 mph 17.3 mph N/A   Clear
11:55 AM 46.4 °F 41.5 °F -0.4 °F 14% 30.29 in 10.0 mi NNW 10.4 mph 16.1 mph N/A   Clear
12:15 PM 46.4 °F 42.4 °F -0.4 °F 14% 30.29 in 10.0 mi North 8.1 mph - N/A   Clear
12:35 PM 46.4 °F 41.9 °F -2.2 °F 13% 30.27 in 10.0 mi North 9.2 mph - N/A   Clear
12:55 PM 46.4 °F 42.4 °F -0.4 °F 14% 30.27 in 10.0 mi North 8.1 mph - N/A   Clear
1:15 PM 46.4 °F 42.9 °F -0.4 °F 14% 30.27 in 10.0 mi North 6.9 mph - N/A   Clear
1:35 PM 46.4 °F 41.9 °F 1.4 °F 16% 30.27 in 10.0 mi North 9.2 mph - N/A   Clear
1:55 PM 46.4 °F 42.4 °F 3.2 °F 17% 30.27 in 10.0 mi North 8.1 mph - N/A   Clear
2:15 PM 46.4 °F 41.9 °F 6.8 °F 20% 30.28 in 10.0 mi North 9.2 mph - N/A   Clear
2:35 PM 46.4 °F 42.9 °F 8.6 °F 22% 30.28 in 10.0 mi NW 6.9 mph - N/A   Clear
2:55 PM 46.4 °F 45.2 °F 8.6 °F 22% 30.29 in 10.0 mi West 3.5 mph - N/A   Clear
3:15 PM 44.6 °F 41.4 °F 10.4 °F 25% 30.30 in 10.0 mi North 5.8 mph - N/A   Clear
3:35 PM 42.8 °F 37.5 °F 14.0 °F 31% 30.31 in 10.0 mi NNW 9.2 mph - N/A   Clear
3:55 PM 39.2 °F 35.9 °F 14.0 °F 36% 30.31 in 10.0 mi NW 4.6 mph - N/A   Clear
4:15 PM 35.6 °F 30.7 °F 14.0 °F 41% 30.32 in 10.0 mi NW 5.8 mph - N/A   Clear
4:35 PM 33.8 °F - 14.0 °F 44% 30.32 in 10.0 mi Calm Calm - N/A   Clear
4:55 PM 30.2 °F - 14.0 °F 51% 30.33 in 10.0 mi Calm Calm - N/A   Clear
5:15 PM 30.2 °F 26.7 °F 14.0 °F 51% 30.33 in 10.0 mi NNW 3.5 mph - N/A   Clear
5:35 PM 28.4 °F 24.6 °F 15.8 °F 59% 30.34 in 10.0 mi West 3.5 mph - N/A   Clear
5:55 PM 26.6 °F - 15.8 °F 64% 30.35 in 10.0 mi Calm Calm - N/A   Clear
6:15 PM 24.8 °F 16.9 °F 15.8 °F 69% 30.36 in 10.0 mi West 6.9 mph - N/A   Clear
6:35 PM 26.6 °F 20.0 °F 15.8 °F 64% 30.38 in 10.0 mi West 5.8 mph - N/A   Clear
6:55 PM 26.6 °F 18.2 °F 15.8 °F 64% 30.38 in 10.0 mi WNW 8.1 mph - N/A   Clear
7:15 PM 24.8 °F 20.5 °F 15.8 °F 69% 30.38 in 10.0 mi NNW 3.5 mph - N/A   Clear
7:35 PM 23.0 °F 13.1 °F 15.8 °F 74% 30.38 in 10.0 mi West 9.2 mph - N/A   Clear
7:55 PM 24.8 °F 14.6 °F 15.8 °F 69% 30.39 in 10.0 mi West 10.4 mph - N/A   Clear
8:15 PM 24.8 °F 14.6 °F 15.8 °F 69% 30.40 in 10.0 mi West 10.4 mph - N/A   Clear
8:35 PM 24.8 °F 16.9 °F 15.8 °F 69% 30.40 in 10.0 mi WNW 6.9 mph - N/A   Clear
8:55 PM 26.6 °F - 15.8 °F 64% 30.41 in 10.0 mi North - - N/A   Clear
9:15 PM 23.0 °F 13.9 °F 15.8 °F 74% 30.41 in 10.0 mi West 8.1 mph - N/A   Clear
9:35 PM 23.0 °F - 15.8 °F 74% 30.41 in 10.0 mi North - - N/A   Clear
9:55 PM 23.0 °F 18.4 °F 15.8 °F 74% 30.42 in 10.0 mi North 3.5 mph - N/A   Clear
10:15 PM 23.0 °F 18.4 °F 14.0 °F 68% 30.42 in 10.0 mi North 3.5 mph - N/A   Clear
10:35 PM 23.0 °F - 14.0 °F 68% 30.43 in 10.0 mi North - - N/A   Clear
10:55 PM 23.0 °F 17.0 °F 14.0 °F 68% 30.43 in 10.0 mi NW 4.6 mph - N/A   Clear
11:15 PM 24.8 °F 16.9 °F 15.8 °F 69% 30.43 in 10.0 mi West 6.9 mph - N/A   Clear
11:35 PM 23.0 °F 17.0 °F 14.0 °F 68% 30.42 in 10.0 mi North 4.6 mph - N/A   Clear
11:55 PM 23.0 °F 17.0 °F 14.0 °F 68% 30.42 in 10.0 mi North 4.6 mph - N/A   Clear